sensor_id;sensor_type;location;lat;lon;timestamp;pressure;altitude;pressure_sealevel;temperature;humidity
65716;BME280;63484;52.054;8.518;2023-02-18T00:00:31;101135.41;;;8.13;85.46
65716;BME280;63484;52.054;8.518;2023-02-18T00:05:34;101126.63;;;8.14;87.94
65716;BME280;63484;52.054;8.518;2023-02-18T00:10:35;101127.91;;;8.26;89.39
65716;BME280;63484;52.054;8.518;2023-02-18T00:15:37;101118.34;;;8.25;89.72
65716;BME280;63484;52.054;8.518;2023-02-18T00:20:41;101124.66;;;8.19;91.17
65716;BME280;63484;52.054;8.518;2023-02-18T00:25:42;101121.31;;;8.16;92.45
65716;BME280;63484;52.054;8.518;2023-02-18T00:30:44;101102.34;;;8.11;93.68
65716;BME280;63484;52.054;8.518;2023-02-18T00:35:47;101113.53;;;8.14;95.34
65716;BME280;63484;52.054;8.518;2023-02-18T00:40:49;101101.88;;;8.21;96.16
65716;BME280;63484;52.054;8.518;2023-02-18T00:45:50;101114.47;;;8.33;96.95
65716;BME280;63484;52.054;8.518;2023-02-18T00:50:53;101117.06;;;8.33;97.96
65716;BME280;63484;52.054;8.518;2023-02-18T00:55:57;101107.31;;;8.37;98.38
65716;BME280;63484;52.054;8.518;2023-02-18T01:00:58;101108.19;;;8.56;98.91
65716;BME280;63484;52.054;8.518;2023-02-18T01:06:04;101106.84;;;8.66;98.05
65716;BME280;63484;52.054;8.518;2023-02-18T01:11:08;101103.53;;;8.81;97.79
65716;BME280;63484;52.054;8.518;2023-02-18T01:16:10;101098.00;;;8.87;97.11
65716;BME280;63484;52.054;8.518;2023-02-18T01:21:13;101094.47;;;8.88;97.06
65716;BME280;63484;52.054;8.518;2023-02-18T01:26:16;101082.13;;;8.90;97.06
65716;BME280;63484;52.054;8.518;2023-02-18T01:31:17;101079.16;;;8.98;96.31
65716;BME280;63484;52.054;8.518;2023-02-18T01:36:20;101086.72;;;9.04;95.84
65716;BME280;63484;52.054;8.518;2023-02-18T01:41:22;101066.38;;;9.09;95.87
65716;BME280;63484;52.054;8.518;2023-02-18T01:46:23;101067.78;;;9.16;96.64
65716;BME280;63484;52.054;8.518;2023-02-18T01:51:29;101054.72;;;9.14;96.98
65716;BME280;63484;52.054;8.518;2023-02-18T01:56:34;101048.25;;;9.21;96.76
65716;BME280;63484;52.054;8.518;2023-02-18T02:01:37;101042.50;;;9.32;96.70
65716;BME280;63484;52.054;8.518;2023-02-18T02:07:06;101039.09;;;9.30;97.64
65716;BME280;63484;52.054;8.518;2023-02-18T02:12:24;101037.91;;;9.35;97.85
65716;BME280;63484;52.054;8.518;2023-02-18T02:17:34;101026.97;;;9.44;97.98
65716;BME280;63484;52.054;8.518;2023-02-18T02:23:13;101007.50;;;9.48;98.57
65716;BME280;63484;52.054;8.518;2023-02-18T02:34:21;101006.38;;;9.54;99.41
65716;BME280;63484;52.054;8.518;2023-02-18T02:39:29;100984.06;;;9.62;99.02
65716;BME280;63484;52.054;8.518;2023-02-18T02:44:38;100981.72;;;9.56;99.57
65716;BME280;63484;52.054;8.518;2023-02-18T02:49:48;100966.22;;;9.52;100.00
65716;BME280;63484;52.054;8.518;2023-02-18T02:54:53;100966.13;;;9.70;99.23
65716;BME280;63484;52.054;8.518;2023-02-18T02:59:58;100973.56;;;9.62;99.64
65716;BME280;63484;52.054;8.518;2023-02-18T03:05:14;100964.56;;;9.66;99.38
65716;BME280;63484;52.054;8.518;2023-02-18T03:10:46;100957.16;;;9.74;98.95
65716;BME280;63484;52.054;8.518;2023-02-18T03:15:54;100950.41;;;9.86;98.79
65716;BME280;63484;52.054;8.518;2023-02-18T03:21:03;100938.75;;;9.92;98.99
65716;BME280;63484;52.054;8.518;2023-02-18T03:26:07;100921.94;;;9.94;99.05
65716;BME280;63484;52.054;8.518;2023-02-18T03:31:16;100899.94;;;9.97;99.19
65716;BME280;63484;52.054;8.518;2023-02-18T03:36:22;100905.88;;;10.00;99.45
65716;BME280;63484;52.054;8.518;2023-02-18T03:41:25;100893.94;;;10.10;100.00
65716;BME280;63484;52.054;8.518;2023-02-18T03:46:26;100890.50;;;10.10;100.00
65716;BME280;63484;52.054;8.518;2023-02-18T03:56:38;100879.75;;;9.97;100.00
65716;BME280;63484;52.054;8.518;2023-02-18T04:01:39;100872.66;;;9.99;100.00
65716;BME280;63484;52.054;8.518;2023-02-18T04:06:41;100855.97;;;10.00;100.00
65716;BME280;63484;52.054;8.518;2023-02-18T04:11:43;100853.34;;;10.00;100.00
65716;BME280;63484;52.054;8.518;2023-02-18T04:16:45;100863.50;;;10.06;100.00
65716;BME280;63484;52.054;8.518;2023-02-18T04:21:46;100842.59;;;10.05;100.00
65716;BME280;63484;52.054;8.518;2023-02-18T04:26:49;100838.78;;;10.10;100.00
65716;BME280;63484;52.054;8.518;2023-02-18T04:31:51;100834.88;;;10.17;100.00
65716;BME280;63484;52.054;8.518;2023-02-18T04:36:52;100831.84;;;10.09;100.00
65716;BME280;63484;52.054;8.518;2023-02-18T04:41:55;100822.50;;;10.19;100.00
65716;BME280;63484;52.054;8.518;2023-02-18T04:46:56;100819.03;;;10.19;100.00
65716;BME280;63484;52.054;8.518;2023-02-18T04:51:58;100806.22;;;10.28;100.00
65716;BME280;63484;52.054;8.518;2023-02-18T04:57:00;100796.28;;;10.33;100.00
65716;BME280;63484;52.054;8.518;2023-02-18T05:02:02;100796.88;;;10.38;100.00
65716;BME280;63484;52.054;8.518;2023-02-18T05:07:04;100786.38;;;10.38;100.00
65716;BME280;63484;52.054;8.518;2023-02-18T05:12:07;100787.03;;;10.42;100.00
65716;BME280;63484;52.054;8.518;2023-02-18T05:17:09;100778.28;;;10.41;100.00
65716;BME280;63484;52.054;8.518;2023-02-18T05:22:10;100767.50;;;10.46;100.00
65716;BME280;63484;52.054;8.518;2023-02-18T05:27:13;100758.41;;;10.37;100.00
65716;BME280;63484;52.054;8.518;2023-02-18T05:32:15;100757.19;;;10.43;100.00
65716;BME280;63484;52.054;8.518;2023-02-18T05:37:16;100749.00;;;10.47;100.00
65716;BME280;63484;52.054;8.518;2023-02-18T05:42:19;100738.50;;;10.47;100.00
65716;BME280;63484;52.054;8.518;2023-02-18T05:47:22;100723.28;;;10.38;100.00
65716;BME280;63484;52.054;8.518;2023-02-18T05:52:23;100712.13;;;10.49;100.00
65716;BME280;63484;52.054;8.518;2023-02-18T05:57:26;100706.31;;;10.44;100.00
65716;BME280;63484;52.054;8.518;2023-02-18T06:02:28;100707.81;;;10.48;100.00
65716;BME280;63484;52.054;8.518;2023-02-18T06:07:29;100698.72;;;10.53;100.00
65716;BME280;63484;52.054;8.518;2023-02-18T06:12:32;100677.88;;;10.64;100.00
65716;BME280;63484;52.054;8.518;2023-02-18T06:17:33;100689.31;;;10.49;100.00
65716;BME280;63484;52.054;8.518;2023-02-18T06:22:34;100679.84;;;10.61;100.00
65716;BME280;63484;52.054;8.518;2023-02-18T06:27:37;100677.03;;;10.50;100.00
65716;BME280;63484;52.054;8.518;2023-02-18T06:32:39;100681.25;;;10.52;100.00
65716;BME280;63484;52.054;8.518;2023-02-18T06:37:40;100675.78;;;10.41;100.00
65716;BME280;63484;52.054;8.518;2023-02-18T06:42:43;100656.28;;;10.59;100.00
65716;BME280;63484;52.054;8.518;2023-02-18T06:47:45;100656.28;;;10.45;100.00
65716;BME280;63484;52.054;8.518;2023-02-18T06:52:46;100649.97;;;10.48;100.00
65716;BME280;63484;52.054;8.518;2023-02-18T06:57:49;100649.50;;;10.55;100.00
65716;BME280;63484;52.054;8.518;2023-02-18T07:02:50;100636.38;;;10.55;100.00
65716;BME280;63484;52.054;8.518;2023-02-18T07:07:52;100628.56;;;10.54;100.00
65716;BME280;63484;52.054;8.518;2023-02-18T07:12:54;100633.56;;;10.58;100.00
65716;BME280;63484;52.054;8.518;2023-02-18T07:17:56;100631.88;;;10.57;100.00
65716;BME280;63484;52.054;8.518;2023-02-18T07:22:57;100610.47;;;10.63;100.00
65716;BME280;63484;52.054;8.518;2023-02-18T07:28:00;100622.09;;;10.59;100.00
65716;BME280;63484;52.054;8.518;2023-02-18T07:33:02;100616.09;;;10.57;100.00
65716;BME280;63484;52.054;8.518;2023-02-18T07:38:03;100621.63;;;10.67;100.00
65716;BME280;63484;52.054;8.518;2023-02-18T07:43:06;100615.34;;;10.55;100.00
65716;BME280;63484;52.054;8.518;2023-02-18T07:48:07;100615.16;;;10.58;100.00
65716;BME280;63484;52.054;8.518;2023-02-18T07:53:10;100614.50;;;10.69;100.00
65716;BME280;63484;52.054;8.518;2023-02-18T07:58:13;100602.19;;;10.83;100.00
65716;BME280;63484;52.054;8.518;2023-02-18T08:03:15;100611.03;;;10.82;100.00
65716;BME280;63484;52.054;8.518;2023-02-18T08:08:18;100619.47;;;10.73;100.00
65716;BME280;63484;52.054;8.518;2023-02-18T08:13:21;100613.19;;;10.76;100.00
65716;BME280;63484;52.054;8.518;2023-02-18T08:18:24;100603.41;;;10.64;100.00
65716;BME280;63484;52.054;8.518;2023-02-18T08:23:26;100599.97;;;10.63;100.00
65716;BME280;63484;52.054;8.518;2023-02-18T08:28:29;100608.09;;;10.59;100.00
65716;BME280;63484;52.054;8.518;2023-02-18T08:33:30;100603.59;;;10.61;100.00
65716;BME280;63484;52.054;8.518;2023-02-18T08:38:32;100592.59;;;10.68;100.00
65716;BME280;63484;52.054;8.518;2023-02-18T08:43:35;100601.63;;;10.64;100.00
65716;BME280;63484;52.054;8.518;2023-02-18T08:48:36;100588.09;;;10.70;100.00
65716;BME280;63484;52.054;8.518;2023-02-18T08:53:38;100588.19;;;10.69;100.00
65716;BME280;63484;52.054;8.518;2023-02-18T08:58:41;100593.72;;;10.78;100.00
65716;BME280;63484;52.054;8.518;2023-02-18T09:03:43;100584.16;;;10.77;100.00
65716;BME280;63484;52.054;8.518;2023-02-18T09:08:44;100594.69;;;10.77;100.00
65716;BME280;63484;52.054;8.518;2023-02-18T09:13:47;100583.59;;;10.72;100.00
65716;BME280;63484;52.054;8.518;2023-02-18T09:18:48;100569.97;;;10.80;100.00
65716;BME280;63484;52.054;8.518;2023-02-18T09:23:50;100570.06;;;10.78;100.00
65716;BME280;63484;52.054;8.518;2023-02-18T09:28:54;100567.97;;;10.83;100.00
65716;BME280;63484;52.054;8.518;2023-02-18T09:33:58;100580.75;;;10.89;100.00
65716;BME280;63484;52.054;8.518;2023-02-18T09:39:00;100572.56;;;10.94;100.00
65716;BME280;63484;52.054;8.518;2023-02-18T09:44:04;100576.59;;;10.99;100.00
65716;BME280;63484;52.054;8.518;2023-02-18T09:49:14;100585.13;;;11.03;100.00
65716;BME280;63484;52.054;8.518;2023-02-18T09:54:17;100560.25;;;10.94;100.00
65716;BME280;63484;52.054;8.518;2023-02-18T09:59:23;100566.31;;;10.82;100.00
65716;BME280;63484;52.054;8.518;2023-02-18T10:04:28;100567.97;;;10.83;100.00
65716;BME280;63484;52.054;8.518;2023-02-18T10:09:34;100566.75;;;10.89;100.00
65716;BME280;63484;52.054;8.518;2023-02-18T10:14:37;100559.44;;;10.80;100.00
65716;BME280;63484;52.054;8.518;2023-02-18T10:19:40;100547.09;;;10.68;100.00
65716;BME280;63484;52.054;8.518;2023-02-18T10:24:45;100562.47;;;10.74;100.00
65716;BME280;63484;52.054;8.518;2023-02-18T10:29:49;100566.56;;;10.92;99.53
65716;BME280;63484;52.054;8.518;2023-02-18T10:34:53;100579.81;;;10.90;98.75
65716;BME280;63484;52.054;8.518;2023-02-18T10:40:07;100589.56;;;10.88;98.66
65716;BME280;63484;52.054;8.518;2023-02-18T10:45:20;100599.06;;;10.91;99.39
65716;BME280;63484;52.054;8.518;2023-02-18T10:50:28;100577.94;;;10.78;99.05
65716;BME280;63484;52.054;8.518;2023-02-18T10:55:36;100581.78;;;10.87;97.43
65716;BME280;63484;52.054;8.518;2023-02-18T11:00:40;100577.03;;;10.79;99.97
65716;BME280;63484;52.054;8.518;2023-02-18T11:05:42;100582.66;;;10.73;98.39
65716;BME280;63484;52.054;8.518;2023-02-18T11:10:45;100589.41;;;10.77;99.18
65716;BME280;63484;52.054;8.518;2023-02-18T11:15:57;100599.13;;;11.03;96.75
65716;BME280;63484;52.054;8.518;2023-02-18T11:21:02;100591.81;;;10.94;97.43
65716;BME280;63484;52.054;8.518;2023-02-18T11:26:05;100597.88;;;10.82;97.80
65716;BME280;63484;52.054;8.518;2023-02-18T11:31:14;100588.31;;;10.53;100.00
65716;BME280;63484;52.054;8.518;2023-02-18T11:36:21;100605.88;;;10.53;99.73
65716;BME280;63484;52.054;8.518;2023-02-18T11:41:30;100614.59;;;10.53;100.00
65716;BME280;63484;52.054;8.518;2023-02-18T11:46:34;100605.41;;;10.46;100.00
65716;BME280;63484;52.054;8.518;2023-02-18T11:51:38;100607.47;;;10.41;100.00
65716;BME280;63484;52.054;8.518;2023-02-18T11:56:40;100608.97;;;10.45;100.00
65716;BME280;63484;52.054;8.518;2023-02-18T12:01:59;100610.47;;;10.49;100.00
65716;BME280;63484;52.054;8.518;2023-02-18T12:07:11;100607.94;;;10.48;100.00
65716;BME280;63484;52.054;8.518;2023-02-18T12:12:20;100598.34;;;10.61;100.00
65716;BME280;63484;52.054;8.518;2023-02-18T12:17:35;100595.13;;;10.70;99.71
65716;BME280;63484;52.054;8.518;2023-02-18T12:22:44;100592.44;;;10.57;100.00
65716;BME280;63484;52.054;8.518;2023-02-18T12:27:50;100608.84;;;10.33;100.00
65716;BME280;63484;52.054;8.518;2023-02-18T12:33:00;100613.81;;;10.23;100.00
65716;BME280;63484;52.054;8.518;2023-02-18T12:38:24;100605.38;;;10.18;100.00
65716;BME280;63484;52.054;8.518;2023-02-18T12:43:42;100603.88;;;10.14;100.00
65716;BME280;63484;52.054;8.518;2023-02-18T12:49:12;100612.69;;;10.13;100.00
65716;BME280;63484;52.054;8.518;2023-02-18T12:54:28;100612.53;;;10.16;100.00
65716;BME280;63484;52.054;8.518;2023-02-18T12:59:53;100614.88;;;10.21;100.00
65716;BME280;63484;52.054;8.518;2023-02-18T13:05:04;100606.22;;;10.19;100.00
65716;BME280;63484;52.054;8.518;2023-02-18T13:10:24;100632.03;;;10.26;100.00
65716;BME280;63484;52.054;8.518;2023-02-18T13:15:35;100622.84;;;10.33;100.00
65716;BME280;63484;52.054;8.518;2023-02-18T13:20:42;100617.50;;;10.35;100.00
65716;BME280;63484;52.054;8.518;2023-02-18T13:25:47;100620.22;;;10.33;100.00
65716;BME280;63484;52.054;8.518;2023-02-18T13:30:57;100626.13;;;10.37;100.00
65716;BME280;63484;52.054;8.518;2023-02-18T13:36:05;100614.78;;;10.36;100.00
65716;BME280;63484;52.054;8.518;2023-02-18T13:41:09;100611.03;;;10.40;100.00
65716;BME280;63484;52.054;8.518;2023-02-18T13:46:12;100610.16;;;10.54;100.00
65716;BME280;63484;52.054;8.518;2023-02-18T13:51:17;100596.41;;;10.50;100.00
65716;BME280;63484;52.054;8.518;2023-02-18T13:56:28;100605.56;;;10.57;100.00
65716;BME280;63484;52.054;8.518;2023-02-18T14:01:39;100611.78;;;10.70;100.00
65716;BME280;63484;52.054;8.518;2023-02-18T14:12:37;100610.13;;;10.96;99.03
65716;BME280;63484;52.054;8.518;2023-02-18T14:17:42;100617.41;;;10.92;98.45
65716;BME280;63484;52.054;8.518;2023-02-18T14:22:46;100615.31;;;10.83;99.06
65716;BME280;63484;52.054;8.518;2023-02-18T14:27:50;100624.44;;;10.64;99.68
65716;BME280;63484;52.054;8.518;2023-02-18T14:32:55;100629.03;;;10.60;100.00
65716;BME280;63484;52.054;8.518;2023-02-18T14:38:20;100620.03;;;10.64;100.00
65716;BME280;63484;52.054;8.518;2023-02-18T14:43:46;100626.78;;;10.54;100.00
65716;BME280;63484;52.054;8.518;2023-02-18T14:49:13;100639.75;;;10.57;100.00
65716;BME280;63484;52.054;8.518;2023-02-18T14:54:20;100633.00;;;10.53;100.00
65716;BME280;63484;52.054;8.518;2023-02-18T14:59:26;100649.59;;;10.54;100.00
65716;BME280;63484;52.054;8.518;2023-02-18T15:04:28;100646.88;;;10.55;100.00
65716;BME280;63484;52.054;8.518;2023-02-18T15:09:31;100649.25;;;10.60;100.00
65716;BME280;63484;52.054;8.518;2023-02-18T15:14:34;100653.47;;;10.62;99.71
65716;BME280;63484;52.054;8.518;2023-02-18T15:19:39;100647.09;;;10.66;99.87
65716;BME280;63484;52.054;8.518;2023-02-18T15:24:43;100656.47;;;10.70;99.22
65716;BME280;63484;52.054;8.518;2023-02-18T15:29:48;100659.28;;;10.67;98.82
65716;BME280;63484;52.054;8.518;2023-02-18T15:34:51;100658.09;;;10.73;98.89
65716;BME280;63484;52.054;8.518;2023-02-18T15:39:55;100666.13;;;10.70;98.75
65716;BME280;63484;52.054;8.518;2023-02-18T15:44:57;100668.31;;;10.77;98.22
65716;BME280;63484;52.054;8.518;2023-02-18T15:50:03;100676.28;;;10.76;98.31
65716;BME280;63484;52.054;8.518;2023-02-18T15:55:12;100676.75;;;10.68;98.97
65716;BME280;63484;52.054;8.518;2023-02-18T16:00:18;100670.47;;;10.57;99.88
65716;BME280;63484;52.054;8.518;2023-02-18T16:05:25;100684.44;;;10.57;99.48
65716;BME280;63484;52.054;8.518;2023-02-18T16:10:53;100679.66;;;10.50;99.77
65716;BME280;63484;52.054;8.518;2023-02-18T16:15:57;100683.53;;;10.58;98.22
65716;BME280;63484;52.054;8.518;2023-02-18T16:21:01;100695.06;;;10.56;99.16
65716;BME280;63484;52.054;8.518;2023-02-18T16:26:26;100694.56;;;10.49;100.00
65716;BME280;63484;52.054;8.518;2023-02-18T16:31:28;100701.53;;;10.50;99.73
65716;BME280;63484;52.054;8.518;2023-02-18T16:36:30;100699.47;;;10.55;99.13
65716;BME280;63484;52.054;8.518;2023-02-18T16:41:34;100700.50;;;10.53;99.21
65716;BME280;63484;52.054;8.518;2023-02-18T16:46:35;100706.44;;;10.56;98.29
65716;BME280;63484;52.054;8.518;2023-02-18T16:51:37;100712.69;;;10.54;98.50
65716;BME280;63484;52.054;8.518;2023-02-18T16:56:39;100711.31;;;10.62;98.69
65716;BME280;63484;52.054;8.518;2023-02-18T17:01:43;100715.50;;;10.51;98.34
65716;BME280;63484;52.054;8.518;2023-02-18T17:06:47;100716.75;;;10.45;98.70
65716;BME280;63484;52.054;8.518;2023-02-18T17:11:53;100731.66;;;10.45;99.56
65716;BME280;63484;52.054;8.518;2023-02-18T17:16:56;100717.13;;;10.53;98.15
65716;BME280;63484;52.054;8.518;2023-02-18T17:21:57;100734.31;;;10.59;97.70
65716;BME280;63484;52.054;8.518;2023-02-18T17:27:00;100738.69;;;10.44;98.09
65716;BME280;63484;52.054;8.518;2023-02-18T17:32:04;100754.63;;;10.41;98.71
65716;BME280;63484;52.054;8.518;2023-02-18T17:37:10;100764.97;;;10.44;98.67
65716;BME280;63484;52.054;8.518;2023-02-18T17:42:14;100771.66;;;10.50;98.02
65716;BME280;63484;52.054;8.518;2023-02-18T17:47:16;100767.91;;;10.54;97.74
65716;BME280;63484;52.054;8.518;2023-02-18T17:52:27;100765.28;;;10.54;97.55
65716;BME280;63484;52.054;8.518;2023-02-18T17:57:31;100781.03;;;10.54;96.91
65716;BME280;63484;52.054;8.518;2023-02-18T18:02:32;100779.81;;;10.45;96.77
65716;BME280;63484;52.054;8.518;2023-02-18T18:07:34;100785.50;;;10.38;97.11
65716;BME280;63484;52.054;8.518;2023-02-18T18:12:37;100777.53;;;10.39;96.88
65716;BME280;63484;52.054;8.518;2023-02-18T18:17:39;100791.81;;;10.35;97.09
65716;BME280;63484;52.054;8.518;2023-02-18T18:22:40;100781.97;;;10.23;97.33
65716;BME280;63484;52.054;8.518;2023-02-18T18:27:43;100789.13;;;10.21;96.31
65716;BME280;63484;52.054;8.518;2023-02-18T18:32:44;100788.44;;;10.18;95.64
65716;BME280;63484;52.054;8.518;2023-02-18T18:37:46;100792.44;;;10.09;96.14
65716;BME280;63484;52.054;8.518;2023-02-18T18:42:49;100783.53;;;9.96;96.54
65716;BME280;63484;52.054;8.518;2023-02-18T18:47:51;100796.66;;;9.96;95.92
65716;BME280;63484;52.054;8.518;2023-02-18T18:52:53;100804.88;;;9.90;97.03
65716;BME280;63484;52.054;8.518;2023-02-18T18:57:57;100804.34;;;9.99;96.85
65716;BME280;63484;52.054;8.518;2023-02-18T19:02:59;100801.72;;;9.99;96.82
65716;BME280;63484;52.054;8.518;2023-02-18T19:08:01;100801.38;;;10.05;97.00
65716;BME280;63484;52.054;8.518;2023-02-18T19:13:06;100802.16;;;10.07;97.11
65716;BME280;63484;52.054;8.518;2023-02-18T19:18:11;100804.00;;;10.05;97.18
65716;BME280;63484;52.054;8.518;2023-02-18T19:23:13;100798.25;;;9.99;97.62
65716;BME280;63484;52.054;8.518;2023-02-18T19:28:16;100800.03;;;9.98;97.82
65716;BME280;63484;52.054;8.518;2023-02-18T19:33:18;100792.16;;;9.98;97.79
65716;BME280;63484;52.054;8.518;2023-02-18T19:38:19;100796.06;;;9.91;98.61
65716;BME280;63484;52.054;8.518;2023-02-18T19:43:22;100804.53;;;9.96;98.49
65716;BME280;63484;52.054;8.518;2023-02-18T19:48:24;100798.44;;;9.96;98.78
65716;BME280;63484;52.054;8.518;2023-02-18T19:53:25;100804.19;;;10.02;98.81
65716;BME280;63484;52.054;8.518;2023-02-18T19:58:28;100795.47;;;10.02;99.08
65716;BME280;63484;52.054;8.518;2023-02-18T20:03:30;100805.66;;;10.08;99.20
65716;BME280;63484;52.054;8.518;2023-02-18T20:08:31;100792.66;;;10.05;99.85
65716;BME280;63484;52.054;8.518;2023-02-18T20:13:37;100780.06;;;10.11;99.65
65716;BME280;63484;52.054;8.518;2023-02-18T20:18:39;100774.78;;;9.96;100.00
65716;BME280;63484;52.054;8.518;2023-02-18T20:23:40;100778.44;;;9.93;100.00
65716;BME280;63484;52.054;8.518;2023-02-18T20:28:43;100781.16;;;9.92;100.00
65716;BME280;63484;52.054;8.518;2023-02-18T20:33:44;100776.59;;;9.95;100.00
65716;BME280;63484;52.054;8.518;2023-02-18T20:38:47;100763.78;;;9.89;100.00
65716;BME280;63484;52.054;8.518;2023-02-18T20:43:52;100771.47;;;9.92;100.00
65716;BME280;63484;52.054;8.518;2023-02-18T20:48:53;100763.78;;;9.89;100.00
65716;BME280;63484;52.054;8.518;2023-02-18T20:53:55;100756.41;;;9.96;100.00
65716;BME280;63484;52.054;8.518;2023-02-18T20:58:57;100763.38;;;9.97;100.00
65716;BME280;63484;52.054;8.518;2023-02-18T21:03:59;100755.81;;;9.91;100.00
65716;BME280;63484;52.054;8.518;2023-02-18T21:09:00;100751.41;;;9.91;100.00
65716;BME280;63484;52.054;8.518;2023-02-18T21:14:03;100756.31;;;9.97;100.00
65716;BME280;63484;52.054;8.518;2023-02-18T21:19:07;100755.03;;;10.04;100.00
65716;BME280;63484;52.054;8.518;2023-02-18T21:24:10;100751.75;;;10.01;100.00
65716;BME280;63484;52.054;8.518;2023-02-18T21:29:13;100752.53;;;9.87;100.00
65716;BME280;63484;52.054;8.518;2023-02-18T21:34:15;100741.91;;;10.04;100.00
65716;BME280;63484;52.054;8.518;2023-02-18T21:39:16;100740.66;;;9.96;100.00
65716;BME280;63484;52.054;8.518;2023-02-18T21:44:19;100726.94;;;9.91;100.00
65716;BME280;63484;52.054;8.518;2023-02-18T21:49:21;100725.16;;;9.91;100.00
65716;BME280;63484;52.054;8.518;2023-02-18T21:54:23;100727.00;;;9.89;100.00
65716;BME280;63484;52.054;8.518;2023-02-18T21:59:28;100703.97;;;9.94;100.00
65716;BME280;63484;52.054;8.518;2023-02-18T22:04:31;100714.66;;;9.91;100.00
65716;BME280;63484;52.054;8.518;2023-02-18T22:09:34;100721.03;;;9.87;100.00
65716;BME280;63484;52.054;8.518;2023-02-18T22:14:37;100723.56;;;9.89;100.00
65716;BME280;63484;52.054;8.518;2023-02-18T22:19:39;100718.41;;;9.87;100.00
65716;BME280;63484;52.054;8.518;2023-02-18T22:24:43;100720.66;;;9.93;100.00
65716;BME280;63484;52.054;8.518;2023-02-18T22:29:46;100713.72;;;9.92;100.00
65716;BME280;63484;52.054;8.518;2023-02-18T22:34:47;100718.31;;;9.89;100.00
65716;BME280;63484;52.054;8.518;2023-02-18T22:39:48;100703.56;;;9.86;100.00
65716;BME280;63484;52.054;8.518;2023-02-18T22:44:51;100699.44;;;9.82;100.00
65716;BME280;63484;52.054;8.518;2023-02-18T22:49:53;100687.56;;;9.75;100.00
65716;BME280;63484;52.054;8.518;2023-02-18T22:54:54;100680.88;;;9.69;100.00
65716;BME280;63484;52.054;8.518;2023-02-18T22:59:57;100666.50;;;9.76;100.00
65716;BME280;63484;52.054;8.518;2023-02-18T23:04:58;100668.88;;;9.65;100.00
65716;BME280;63484;52.054;8.518;2023-02-18T23:10:00;100657.72;;;9.62;100.00
65716;BME280;63484;52.054;8.518;2023-02-18T23:15:03;100657.53;;;9.65;100.00
65716;BME280;63484;52.054;8.518;2023-02-18T23:20:05;100624.94;;;9.69;100.00
65716;BME280;63484;52.054;8.518;2023-02-18T23:25:07;100621.94;;;9.75;100.00
65716;BME280;63484;52.054;8.518;2023-02-18T23:30:10;100609.91;;;9.71;100.00
65716;BME280;63484;52.054;8.518;2023-02-18T23:35:12;100622.41;;;9.67;100.00
65716;BME280;63484;52.054;8.518;2023-02-18T23:40:14;100620.91;;;9.77;100.00
65716;BME280;63484;52.054;8.518;2023-02-18T23:45:18;100598.03;;;9.79;100.00
65716;BME280;63484;52.054;8.518;2023-02-18T23:50:19;100588.28;;;9.67;100.00
65716;BME280;63484;52.054;8.518;2023-02-18T23:55:21;100591.22;;;9.61;100.00
